sensor_id;sensor_type;location;lat;lon;timestamp;P1;durP1;ratioP1;P2;durP2;ratioP2
58685;SDS011;44465;53.206;-6.106;2023-04-25T00:01:20;5.38;;;2.40;;
58685;SDS011;44465;53.206;-6.106;2023-04-25T00:03:47;6.00;;;1.92;;
58685;SDS011;44465;53.206;-6.106;2023-04-25T00:06:13;4.47;;;1.80;;
58685;SDS011;44465;53.206;-6.106;2023-04-25T00:08:38;3.65;;;1.92;;
58685;SDS011;44465;53.206;-6.106;2023-04-25T00:11:04;3.53;;;1.67;;
58685;SDS011;44465;53.206;-6.106;2023-04-25T00:13:30;2.05;;;1.58;;
58685;SDS011;44465;53.206;-6.106;2023-04-25T00:15:55;2.75;;;1.88;;
58685;SDS011;44465;53.206;-6.106;2023-04-25T00:18:25;3.83;;;2.03;;
58685;SDS011;44465;53.206;-6.106;2023-04-25T00:20:53;2.88;;;1.80;;
58685;SDS011;44465;53.206;-6.106;2023-04-25T00:23:19;3.33;;;1.92;;
58685;SDS011;44465;53.206;-6.106;2023-04-25T00:25:45;2.80;;;1.80;;
58685;SDS011;44465;53.206;-6.106;2023-04-25T00:28:11;2.58;;;2.00;;
58685;SDS011;44465;53.206;-6.106;2023-04-25T00:30:38;4.72;;;1.90;;
58685;SDS011;44465;53.206;-6.106;2023-04-25T00:33:04;3.88;;;2.00;;
58685;SDS011;44465;53.206;-6.106;2023-04-25T00:35:31;2.50;;;1.63;;
58685;SDS011;44465;53.206;-6.106;2023-04-25T00:37:56;3.15;;;1.50;;
58685;SDS011;44465;53.206;-6.106;2023-04-25T00:40:22;3.20;;;1.85;;
58685;SDS011;44465;53.206;-6.106;2023-04-25T00:42:47;4.10;;;1.67;;
58685;SDS011;44465;53.206;-6.106;2023-04-25T00:45:14;2.47;;;1.55;;
58685;SDS011;44465;53.206;-6.106;2023-04-25T00:47:40;2.45;;;1.88;;
58685;SDS011;44465;53.206;-6.106;2023-04-25T00:50:08;4.18;;;1.50;;
58685;SDS011;44465;53.206;-6.106;2023-04-25T00:52:35;5.38;;;1.65;;
58685;SDS011;44465;53.206;-6.106;2023-04-25T00:55:02;2.13;;;1.63;;
58685;SDS011;44465;53.206;-6.106;2023-04-25T00:57:28;3.33;;;2.10;;
58685;SDS011;44465;53.206;-6.106;2023-04-25T00:59:54;1.58;;;1.48;;
58685;SDS011;44465;53.206;-6.106;2023-04-25T01:02:21;2.50;;;1.50;;
58685;SDS011;44465;53.206;-6.106;2023-04-25T01:04:47;4.68;;;2.15;;
58685;SDS011;44465;53.206;-6.106;2023-04-25T01:07:13;2.88;;;1.52;;
58685;SDS011;44465;53.206;-6.106;2023-04-25T01:09:40;2.33;;;1.70;;
58685;SDS011;44465;53.206;-6.106;2023-04-25T01:12:07;3.22;;;1.70;;
58685;SDS011;44465;53.206;-6.106;2023-04-25T01:14:33;2.83;;;1.60;;
58685;SDS011;44465;53.206;-6.106;2023-04-25T01:16:58;3.38;;;1.60;;
58685;SDS011;44465;53.206;-6.106;2023-04-25T01:19:24;4.03;;;1.50;;
58685;SDS011;44465;53.206;-6.106;2023-04-25T01:21:50;2.65;;;1.38;;
58685;SDS011;44465;53.206;-6.106;2023-04-25T01:24:16;1.70;;;1.50;;
58685;SDS011;44465;53.206;-6.106;2023-04-25T01:26:42;2.67;;;1.30;;
58685;SDS011;44465;53.206;-6.106;2023-04-25T01:29:19;2.15;;;1.52;;
58685;SDS011;44465;53.206;-6.106;2023-04-25T01:31:46;2.35;;;1.50;;
58685;SDS011;44465;53.206;-6.106;2023-04-25T01:34:12;4.60;;;1.50;;
58685;SDS011;44465;53.206;-6.106;2023-04-25T01:36:38;3.17;;;1.58;;
58685;SDS011;44465;53.206;-6.106;2023-04-25T01:39:04;1.90;;;1.47;;
58685;SDS011;44465;53.206;-6.106;2023-04-25T01:41:30;3.30;;;1.60;;
58685;SDS011;44465;53.206;-6.106;2023-04-25T01:43:56;2.25;;;1.40;;
58685;SDS011;44465;53.206;-6.106;2023-04-25T01:46:22;2.42;;;1.40;;
58685;SDS011;44465;53.206;-6.106;2023-04-25T01:48:49;2.72;;;1.50;;
58685;SDS011;44465;53.206;-6.106;2023-04-25T01:51:14;1.80;;;1.60;;
58685;SDS011;44465;53.206;-6.106;2023-04-25T01:53:41;1.90;;;1.60;;
58685;SDS011;44465;53.206;-6.106;2023-04-25T01:56:07;1.63;;;1.53;;
58685;SDS011;44465;53.206;-6.106;2023-04-25T01:58:34;3.65;;;1.58;;
58685;SDS011;44465;53.206;-6.106;2023-04-25T02:01:20;2.15;;;1.25;;
58685;SDS011;44465;53.206;-6.106;2023-04-25T02:04:00;2.15;;;1.40;;
58685;SDS011;44465;53.206;-6.106;2023-04-25T02:06:32;1.40;;;1.30;;
58685;SDS011;44465;53.206;-6.106;2023-04-25T02:08:57;1.77;;;1.25;;
58685;SDS011;44465;53.206;-6.106;2023-04-25T02:11:23;1.63;;;1.13;;
58685;SDS011;44465;53.206;-6.106;2023-04-25T02:13:59;1.90;;;1.30;;
58685;SDS011;44465;53.206;-6.106;2023-04-25T02:16:42;1.35;;;1.25;;
58685;SDS011;44465;53.206;-6.106;2023-04-25T02:19:09;1.50;;;1.40;;
58685;SDS011;44465;53.206;-6.106;2023-04-25T02:21:35;2.03;;;1.20;;
58685;SDS011;44465;53.206;-6.106;2023-04-25T02:24:01;2.10;;;1.30;;
58685;SDS011;44465;53.206;-6.106;2023-04-25T02:26:27;2.40;;;1.20;;
58685;SDS011;44465;53.206;-6.106;2023-04-25T02:28:53;1.30;;;1.17;;
58685;SDS011;44465;53.206;-6.106;2023-04-25T02:31:18;1.85;;;1.05;;
58685;SDS011;44465;53.206;-6.106;2023-04-25T02:33:44;2.17;;;1.35;;
58685;SDS011;44465;53.206;-6.106;2023-04-25T02:36:09;1.17;;;1.05;;
58685;SDS011;44465;53.206;-6.106;2023-04-25T02:38:35;1.45;;;1.27;;
58685;SDS011;44465;53.206;-6.106;2023-04-25T02:41:02;1.33;;;1.00;;
58685;SDS011;44465;53.206;-6.106;2023-04-25T02:43:27;2.00;;;1.13;;
58685;SDS011;44465;53.206;-6.106;2023-04-25T02:45:53;1.80;;;1.13;;
58685;SDS011;44465;53.206;-6.106;2023-04-25T02:48:18;1.42;;;1.30;;
58685;SDS011;44465;53.206;-6.106;2023-04-25T02:50:44;2.40;;;1.33;;
58685;SDS011;44465;53.206;-6.106;2023-04-25T02:53:10;1.30;;;1.20;;
58685;SDS011;44465;53.206;-6.106;2023-04-25T02:55:43;1.67;;;1.00;;
58685;SDS011;44465;53.206;-6.106;2023-04-25T02:58:08;1.23;;;1.13;;
58685;SDS011;44465;53.206;-6.106;2023-04-25T03:00:44;1.33;;;1.15;;
58685;SDS011;44465;53.206;-6.106;2023-04-25T03:03:10;1.10;;;1.00;;
58685;SDS011;44465;53.206;-6.106;2023-04-25T03:05:36;1.30;;;1.20;;
58685;SDS011;44465;53.206;-6.106;2023-04-25T03:08:01;1.73;;;1.60;;
58685;SDS011;44465;53.206;-6.106;2023-04-25T03:10:28;1.38;;;1.20;;
58685;SDS011;44465;53.206;-6.106;2023-04-25T03:12:58;1.15;;;1.05;;
58685;SDS011;44465;53.206;-6.106;2023-04-25T03:15:24;1.40;;;1.30;;
58685;SDS011;44465;53.206;-6.106;2023-04-25T03:17:51;1.60;;;1.50;;
58685;SDS011;44465;53.206;-6.106;2023-04-25T03:20:16;1.45;;;1.27;;
58685;SDS011;44465;53.206;-6.106;2023-04-25T03:22:42;1.98;;;1.30;;
58685;SDS011;44465;53.206;-6.106;2023-04-25T03:25:07;1.25;;;0.80;;
58685;SDS011;44465;53.206;-6.106;2023-04-25T03:27:33;1.27;;;1.05;;
58685;SDS011;44465;53.206;-6.106;2023-04-25T03:29:59;1.95;;;1.35;;
58685;SDS011;44465;53.206;-6.106;2023-04-25T03:32:25;1.05;;;0.90;;
58685;SDS011;44465;53.206;-6.106;2023-04-25T03:34:50;1.10;;;1.00;;
58685;SDS011;44465;53.206;-6.106;2023-04-25T03:37:16;1.25;;;1.05;;
58685;SDS011;44465;53.206;-6.106;2023-04-25T03:39:41;2.15;;;1.20;;
58685;SDS011;44465;53.206;-6.106;2023-04-25T03:42:07;1.48;;;1.10;;
58685;SDS011;44465;53.206;-6.106;2023-04-25T03:44:32;1.65;;;0.90;;
58685;SDS011;44465;53.206;-6.106;2023-04-25T03:47:01;1.13;;;1.02;;
58685;SDS011;44465;53.206;-6.106;2023-04-25T03:49:26;1.00;;;0.90;;
58685;SDS011;44465;53.206;-6.106;2023-04-25T03:51:56;2.30;;;1.50;;
58685;SDS011;44465;53.206;-6.106;2023-04-25T03:54:22;1.48;;;1.30;;
58685;SDS011;44465;53.206;-6.106;2023-04-25T03:57:13;1.02;;;0.95;;
58685;SDS011;44465;53.206;-6.106;2023-04-25T03:59:41;1.17;;;1.08;;
58685;SDS011;44465;53.206;-6.106;2023-04-25T04:02:10;1.40;;;0.98;;
58685;SDS011;44465;53.206;-6.106;2023-04-25T04:04:36;2.13;;;0.98;;
58685;SDS011;44465;53.206;-6.106;2023-04-25T04:07:02;0.95;;;0.95;;
58685;SDS011;44465;53.206;-6.106;2023-04-25T04:09:31;1.77;;;1.08;;
58685;SDS011;44465;53.206;-6.106;2023-04-25T04:11:58;1.00;;;0.90;;
58685;SDS011;44465;53.206;-6.106;2023-04-25T04:14:24;0.82;;;0.82;;
58685;SDS011;44465;53.206;-6.106;2023-04-25T04:16:51;1.20;;;1.08;;
58685;SDS011;44465;53.206;-6.106;2023-04-25T04:19:17;1.58;;;1.17;;
58685;SDS011;44465;53.206;-6.106;2023-04-25T04:21:52;1.60;;;0.75;;
58685;SDS011;44465;53.206;-6.106;2023-04-25T04:24:18;1.10;;;0.98;;
58685;SDS011;44465;53.206;-6.106;2023-04-25T04:26:58;1.88;;;1.42;;
58685;SDS011;44465;53.206;-6.106;2023-04-25T04:29:50;0.73;;;0.73;;
58685;SDS011;44465;53.206;-6.106;2023-04-25T04:32:40;1.17;;;1.08;;
58685;SDS011;44465;53.206;-6.106;2023-04-25T04:35:05;0.75;;;0.75;;
58685;SDS011;44465;53.206;-6.106;2023-04-25T04:37:32;1.00;;;0.90;;
58685;SDS011;44465;53.206;-6.106;2023-04-25T04:39:59;0.83;;;0.83;;
58685;SDS011;44465;53.206;-6.106;2023-04-25T04:42:49;0.75;;;0.75;;
58685;SDS011;44465;53.206;-6.106;2023-04-25T04:45:33;1.05;;;0.95;;
58685;SDS011;44465;53.206;-6.106;2023-04-25T04:48:27;0.90;;;0.90;;
58685;SDS011;44465;53.206;-6.106;2023-04-25T04:51:13;0.68;;;0.68;;
58685;SDS011;44465;53.206;-6.106;2023-04-25T04:53:49;0.80;;;0.80;;
58685;SDS011;44465;53.206;-6.106;2023-04-25T04:56:40;1.23;;;1.10;;
58685;SDS011;44465;53.206;-6.106;2023-04-25T04:59:35;0.85;;;0.85;;
58685;SDS011;44465;53.206;-6.106;2023-04-25T05:02:21;0.80;;;0.80;;
58685;SDS011;44465;53.206;-6.106;2023-04-25T05:05:09;0.95;;;0.95;;
58685;SDS011;44465;53.206;-6.106;2023-04-25T05:07:53;0.85;;;0.85;;
58685;SDS011;44465;53.206;-6.106;2023-04-25T05:10:45;1.40;;;1.05;;
58685;SDS011;44465;53.206;-6.106;2023-04-25T05:13:22;1.15;;;0.73;;
58685;SDS011;44465;53.206;-6.106;2023-04-25T05:16:03;0.90;;;0.65;;
58685;SDS011;44465;53.206;-6.106;2023-04-25T05:18:47;0.70;;;0.70;;
58685;SDS011;44465;53.206;-6.106;2023-04-25T05:21:37;0.50;;;0.50;;
58685;SDS011;44465;53.206;-6.106;2023-04-25T05:24:13;0.50;;;0.50;;
58685;SDS011;44465;53.206;-6.106;2023-04-25T05:26:58;1.00;;;0.90;;
58685;SDS011;44465;53.206;-6.106;2023-04-25T05:29:52;0.98;;;0.80;;
58685;SDS011;44465;53.206;-6.106;2023-04-25T05:32:35;0.70;;;0.70;;
58685;SDS011;44465;53.206;-6.106;2023-04-25T05:35:01;0.80;;;0.80;;
58685;SDS011;44465;53.206;-6.106;2023-04-25T05:37:32;1.02;;;0.82;;
58685;SDS011;44465;53.206;-6.106;2023-04-25T05:40:08;1.00;;;0.70;;
58685;SDS011;44465;53.206;-6.106;2023-04-25T05:42:45;2.33;;;0.95;;
58685;SDS011;44465;53.206;-6.106;2023-04-25T05:45:40;0.70;;;0.60;;
58685;SDS011;44465;53.206;-6.106;2023-04-25T05:48:39;1.65;;;0.80;;
58685;SDS011;44465;53.206;-6.106;2023-04-25T05:51:40;1.40;;;0.90;;
58685;SDS011;44465;53.206;-6.106;2023-04-25T05:54:18;1.48;;;0.77;;
58685;SDS011;44465;53.206;-6.106;2023-04-25T05:56:44;0.68;;;0.68;;
58685;SDS011;44465;53.206;-6.106;2023-04-25T05:59:10;0.80;;;0.80;;
58685;SDS011;44465;53.206;-6.106;2023-04-25T06:01:39;0.82;;;0.63;;
58685;SDS011;44465;53.206;-6.106;2023-04-25T06:04:05;0.50;;;0.50;;
58685;SDS011;44465;53.206;-6.106;2023-04-25T06:06:32;1.13;;;0.70;;
58685;SDS011;44465;53.206;-6.106;2023-04-25T06:08:58;0.70;;;0.70;;
58685;SDS011;44465;53.206;-6.106;2023-04-25T06:11:23;0.80;;;0.80;;
58685;SDS011;44465;53.206;-6.106;2023-04-25T06:13:49;0.70;;;0.70;;
58685;SDS011;44465;53.206;-6.106;2023-04-25T06:16:15;0.82;;;0.70;;
58685;SDS011;44465;53.206;-6.106;2023-04-25T06:18:41;0.40;;;0.40;;
58685;SDS011;44465;53.206;-6.106;2023-04-25T06:21:07;0.80;;;0.80;;
58685;SDS011;44465;53.206;-6.106;2023-04-25T06:23:33;0.80;;;0.70;;
58685;SDS011;44465;53.206;-6.106;2023-04-25T06:26:05;0.75;;;0.75;;
58685;SDS011;44465;53.206;-6.106;2023-04-25T06:28:32;0.55;;;0.55;;
58685;SDS011;44465;53.206;-6.106;2023-04-25T06:30:58;1.90;;;0.80;;
58685;SDS011;44465;53.206;-6.106;2023-04-25T06:33:24;0.77;;;0.70;;
58685;SDS011;44465;53.206;-6.106;2023-04-25T06:35:50;0.60;;;0.60;;
58685;SDS011;44465;53.206;-6.106;2023-04-25T06:38:20;0.63;;;0.63;;
58685;SDS011;44465;53.206;-6.106;2023-04-25T06:40:49;0.60;;;0.60;;
58685;SDS011;44465;53.206;-6.106;2023-04-25T06:43:16;0.63;;;0.63;;
58685;SDS011;44465;53.206;-6.106;2023-04-25T06:45:54;0.70;;;0.70;;
58685;SDS011;44465;53.206;-6.106;2023-04-25T06:48:21;1.20;;;0.93;;
58685;SDS011;44465;53.206;-6.106;2023-04-25T06:50:47;1.13;;;0.90;;
58685;SDS011;44465;53.206;-6.106;2023-04-25T06:53:12;1.38;;;0.88;;
58685;SDS011;44465;53.206;-6.106;2023-04-25T06:55:40;0.50;;;0.50;;
58685;SDS011;44465;53.206;-6.106;2023-04-25T06:58:17;0.73;;;0.70;;
58685;SDS011;44465;53.206;-6.106;2023-04-25T07:00:55;0.65;;;0.60;;
58685;SDS011;44465;53.206;-6.106;2023-04-25T07:05:51;0.35;;;0.35;;
58685;SDS011;44465;53.206;-6.106;2023-04-25T07:08:17;0.60;;;0.60;;
58685;SDS011;44465;53.206;-6.106;2023-04-25T07:10:42;0.93;;;0.70;;
58685;SDS011;44465;53.206;-6.106;2023-04-25T07:13:08;0.73;;;0.57;;
58685;SDS011;44465;53.206;-6.106;2023-04-25T07:15:34;0.55;;;0.55;;
58685;SDS011;44465;53.206;-6.106;2023-04-25T07:18:00;1.13;;;0.75;;
58685;SDS011;44465;53.206;-6.106;2023-04-25T07:20:26;0.60;;;0.60;;
58685;SDS011;44465;53.206;-6.106;2023-04-25T07:22:53;2.40;;;0.70;;
58685;SDS011;44465;53.206;-6.106;2023-04-25T07:25:18;0.80;;;0.80;;
58685;SDS011;44465;53.206;-6.106;2023-04-25T07:27:44;0.77;;;0.77;;
58685;SDS011;44465;53.206;-6.106;2023-04-25T07:30:16;1.27;;;0.60;;
58685;SDS011;44465;53.206;-6.106;2023-04-25T07:32:41;1.25;;;0.65;;
58685;SDS011;44465;53.206;-6.106;2023-04-25T07:35:07;0.82;;;0.80;;
58685;SDS011;44465;53.206;-6.106;2023-04-25T07:37:33;0.90;;;0.70;;
58685;SDS011;44465;53.206;-6.106;2023-04-25T07:40:06;0.75;;;0.75;;
58685;SDS011;44465;53.206;-6.106;2023-04-25T07:42:32;1.13;;;0.70;;
58685;SDS011;44465;53.206;-6.106;2023-04-25T07:44:59;1.13;;;0.90;;
58685;SDS011;44465;53.206;-6.106;2023-04-25T07:47:26;0.88;;;0.70;;
58685;SDS011;44465;53.206;-6.106;2023-04-25T07:49:52;0.50;;;0.50;;
58685;SDS011;44465;53.206;-6.106;2023-04-25T07:52:17;1.25;;;0.98;;
58685;SDS011;44465;53.206;-6.106;2023-04-25T07:54:49;0.70;;;0.70;;
58685;SDS011;44465;53.206;-6.106;2023-04-25T07:57:19;0.60;;;0.60;;
58685;SDS011;44465;53.206;-6.106;2023-04-25T07:59:46;1.58;;;0.70;;
58685;SDS011;44465;53.206;-6.106;2023-04-25T08:02:12;0.73;;;0.73;;
58685;SDS011;44465;53.206;-6.106;2023-04-25T08:04:38;1.73;;;0.68;;
58685;SDS011;44465;53.206;-6.106;2023-04-25T08:07:07;0.80;;;0.80;;
58685;SDS011;44465;53.206;-6.106;2023-04-25T08:09:44;1.60;;;0.98;;
58685;SDS011;44465;53.206;-6.106;2023-04-25T08:12:18;7.82;;;2.03;;
58685;SDS011;44465;53.206;-6.106;2023-04-25T08:14:43;3.00;;;1.05;;
58685;SDS011;44465;53.206;-6.106;2023-04-25T08:17:09;8.00;;;1.63;;
58685;SDS011;44465;53.206;-6.106;2023-04-25T08:19:39;8.40;;;1.20;;
58685;SDS011;44465;53.206;-6.106;2023-04-25T08:22:06;6.60;;;1.80;;
58685;SDS011;44465;53.206;-6.106;2023-04-25T08:24:42;15.55;;;2.05;;
58685;SDS011;44465;53.206;-6.106;2023-04-25T08:27:08;6.13;;;1.88;;
58685;SDS011;44465;53.206;-6.106;2023-04-25T08:29:34;6.75;;;2.30;;
58685;SDS011;44465;53.206;-6.106;2023-04-25T08:32:00;6.07;;;1.85;;
58685;SDS011;44465;53.206;-6.106;2023-04-25T08:34:26;10.18;;;2.28;;
58685;SDS011;44465;53.206;-6.106;2023-04-25T08:36:52;7.97;;;2.03;;
58685;SDS011;44465;53.206;-6.106;2023-04-25T08:39:36;11.68;;;2.80;;
58685;SDS011;44465;53.206;-6.106;2023-04-25T08:42:21;14.82;;;2.28;;
58685;SDS011;44465;53.206;-6.106;2023-04-25T08:44:47;14.73;;;2.20;;
58685;SDS011;44465;53.206;-6.106;2023-04-25T08:47:14;13.25;;;2.50;;
58685;SDS011;44465;53.206;-6.106;2023-04-25T08:49:45;15.82;;;3.33;;
58685;SDS011;44465;53.206;-6.106;2023-04-25T08:52:12;16.38;;;3.33;;
58685;SDS011;44465;53.206;-6.106;2023-04-25T08:54:41;11.25;;;2.88;;
58685;SDS011;44465;53.206;-6.106;2023-04-25T08:57:10;12.27;;;2.78;;
58685;SDS011;44465;53.206;-6.106;2023-04-25T08:59:37;14.70;;;2.85;;
58685;SDS011;44465;53.206;-6.106;2023-04-25T09:02:05;9.25;;;2.42;;
58685;SDS011;44465;53.206;-6.106;2023-04-25T09:04:31;28.10;;;4.35;;
58685;SDS011;44465;53.206;-6.106;2023-04-25T09:06:57;52.97;;;6.93;;
58685;SDS011;44465;53.206;-6.106;2023-04-25T09:09:24;30.40;;;4.75;;
58685;SDS011;44465;53.206;-6.106;2023-04-25T09:11:49;61.22;;;7.60;;
58685;SDS011;44465;53.206;-6.106;2023-04-25T09:14:19;34.67;;;5.90;;
58685;SDS011;44465;53.206;-6.106;2023-04-25T09:17:05;31.38;;;3.95;;
58685;SDS011;44465;53.206;-6.106;2023-04-25T09:19:53;19.10;;;2.75;;
58685;SDS011;44465;53.206;-6.106;2023-04-25T09:22:27;43.92;;;6.57;;
58685;SDS011;44465;53.206;-6.106;2023-04-25T09:24:53;36.25;;;5.40;;
58685;SDS011;44465;53.206;-6.106;2023-04-25T09:27:21;33.72;;;4.90;;
58685;SDS011;44465;53.206;-6.106;2023-04-25T09:29:59;21.65;;;3.20;;
58685;SDS011;44465;53.206;-6.106;2023-04-25T09:32:42;13.73;;;2.95;;
58685;SDS011;44465;53.206;-6.106;2023-04-25T09:35:08;17.67;;;3.40;;
58685;SDS011;44465;53.206;-6.106;2023-04-25T09:37:34;15.55;;;2.47;;
58685;SDS011;44465;53.206;-6.106;2023-04-25T09:40:38;11.18;;;2.10;;
58685;SDS011;44465;53.206;-6.106;2023-04-25T09:43:19;14.05;;;2.42;;
58685;SDS011;44465;53.206;-6.106;2023-04-25T09:45:50;16.73;;;2.95;;
58685;SDS011;44465;53.206;-6.106;2023-04-25T09:48:20;22.23;;;3.53;;
58685;SDS011;44465;53.206;-6.106;2023-04-25T09:53:32;28.50;;;4.28;;
58685;SDS011;44465;53.206;-6.106;2023-04-25T09:56:25;18.92;;;2.75;;
58685;SDS011;44465;53.206;-6.106;2023-04-25T09:58:54;17.13;;;2.47;;
58685;SDS011;44465;53.206;-6.106;2023-04-25T10:01:21;14.50;;;2.92;;
58685;SDS011;44465;53.206;-6.106;2023-04-25T10:04:06;13.25;;;2.92;;
58685;SDS011;44465;53.206;-6.106;2023-04-25T10:06:47;10.65;;;2.70;;
58685;SDS011;44465;53.206;-6.106;2023-04-25T10:09:16;13.18;;;2.67;;
58685;SDS011;44465;53.206;-6.106;2023-04-25T10:11:43;16.30;;;3.03;;
58685;SDS011;44465;53.206;-6.106;2023-04-25T10:14:12;12.07;;;2.60;;
58685;SDS011;44465;53.206;-6.106;2023-04-25T10:16:38;12.70;;;3.05;;
58685;SDS011;44465;53.206;-6.106;2023-04-25T10:19:04;11.00;;;2.83;;
58685;SDS011;44465;53.206;-6.106;2023-04-25T10:21:30;12.98;;;2.60;;
58685;SDS011;44465;53.206;-6.106;2023-04-25T10:23:57;9.82;;;2.03;;
58685;SDS011;44465;53.206;-6.106;2023-04-25T10:26:23;10.27;;;2.45;;
58685;SDS011;44465;53.206;-6.106;2023-04-25T10:28:59;13.63;;;3.10;;
58685;SDS011;44465;53.206;-6.106;2023-04-25T10:31:26;21.52;;;3.38;;
58685;SDS011;44465;53.206;-6.106;2023-04-25T10:33:54;21.35;;;3.67;;
58685;SDS011;44465;53.206;-6.106;2023-04-25T10:36:20;20.77;;;4.00;;
58685;SDS011;44465;53.206;-6.106;2023-04-25T10:41:13;23.08;;;4.80;;
58685;SDS011;44465;53.206;-6.106;2023-04-25T10:43:40;22.50;;;3.92;;
58685;SDS011;44465;53.206;-6.106;2023-04-25T10:46:16;25.65;;;3.78;;
58685;SDS011;44465;53.206;-6.106;2023-04-25T10:48:55;14.95;;;3.60;;
58685;SDS011;44465;53.206;-6.106;2023-04-25T10:56:20;18.60;;;3.30;;
58685;SDS011;44465;53.206;-6.106;2023-04-25T10:59:18;20.17;;;3.53;;
58685;SDS011;44465;53.206;-6.106;2023-04-25T11:01:45;26.08;;;4.32;;
58685;SDS011;44465;53.206;-6.106;2023-04-25T11:04:22;28.65;;;4.25;;
58685;SDS011;44465;53.206;-6.106;2023-04-25T11:09:29;36.15;;;6.15;;
58685;SDS011;44465;53.206;-6.106;2023-04-25T11:11:55;32.45;;;6.07;;
58685;SDS011;44465;53.206;-6.106;2023-04-25T11:14:22;31.27;;;4.47;;
58685;SDS011;44465;53.206;-6.106;2023-04-25T11:16:57;31.60;;;5.13;;
58685;SDS011;44465;53.206;-6.106;2023-04-25T11:19:24;22.15;;;4.10;;
58685;SDS011;44465;53.206;-6.106;2023-04-25T11:21:50;24.70;;;3.65;;
58685;SDS011;44465;53.206;-6.106;2023-04-25T11:24:16;25.50;;;4.78;;
58685;SDS011;44465;53.206;-6.106;2023-04-25T11:26:43;16.48;;;3.17;;
58685;SDS011;44465;53.206;-6.106;2023-04-25T11:29:11;34.85;;;5.18;;
58685;SDS011;44465;53.206;-6.106;2023-04-25T11:31:37;24.67;;;4.75;;
58685;SDS011;44465;53.206;-6.106;2023-04-25T11:34:02;28.42;;;5.70;;
58685;SDS011;44465;53.206;-6.106;2023-04-25T11:36:28;24.30;;;3.65;;
58685;SDS011;44465;53.206;-6.106;2023-04-25T11:38:53;31.90;;;4.63;;
58685;SDS011;44465;53.206;-6.106;2023-04-25T11:41:19;32.80;;;5.47;;
58685;SDS011;44465;53.206;-6.106;2023-04-25T11:46:13;29.08;;;4.88;;
58685;SDS011;44465;53.206;-6.106;2023-04-25T11:48:42;30.05;;;4.68;;
58685;SDS011;44465;53.206;-6.106;2023-04-25T11:51:08;24.17;;;4.50;;
58685;SDS011;44465;53.206;-6.106;2023-04-25T11:53:34;20.65;;;5.15;;
58685;SDS011;44465;53.206;-6.106;2023-04-25T11:56:00;26.75;;;4.20;;
58685;SDS011;44465;53.206;-6.106;2023-04-25T11:58:26;31.38;;;5.10;;
58685;SDS011;44465;53.206;-6.106;2023-04-25T12:00:52;28.17;;;4.13;;
58685;SDS011;44465;53.206;-6.106;2023-04-25T12:03:18;20.48;;;4.95;;
58685;SDS011;44465;53.206;-6.106;2023-04-25T12:05:44;29.88;;;5.07;;
58685;SDS011;44465;53.206;-6.106;2023-04-25T12:08:11;21.45;;;4.07;;
58685;SDS011;44465;53.206;-6.106;2023-04-25T12:10:38;40.80;;;8.00;;
58685;SDS011;44465;53.206;-6.106;2023-04-25T12:13:26;29.27;;;3.85;;
58685;SDS011;44465;53.206;-6.106;2023-04-25T12:15:53;19.63;;;4.00;;
58685;SDS011;44465;53.206;-6.106;2023-04-25T12:18:20;30.35;;;4.63;;
58685;SDS011;44465;53.206;-6.106;2023-04-25T12:20:48;24.45;;;5.07;;
58685;SDS011;44465;53.206;-6.106;2023-04-25T12:23:13;26.23;;;4.38;;
58685;SDS011;44465;53.206;-6.106;2023-04-25T12:25:42;21.67;;;5.15;;
58685;SDS011;44465;53.206;-6.106;2023-04-25T12:31:05;37.92;;;6.10;;
58685;SDS011;44465;53.206;-6.106;2023-04-25T12:33:32;34.42;;;5.80;;
58685;SDS011;44465;53.206;-6.106;2023-04-25T12:36:02;28.17;;;5.88;;
58685;SDS011;44465;53.206;-6.106;2023-04-25T12:38:35;28.77;;;4.53;;
58685;SDS011;44465;53.206;-6.106;2023-04-25T12:41:02;33.00;;;5.72;;
58685;SDS011;44465;53.206;-6.106;2023-04-25T12:43:27;38.85;;;7.00;;
58685;SDS011;44465;53.206;-6.106;2023-04-25T12:45:53;28.25;;;4.88;;
58685;SDS011;44465;53.206;-6.106;2023-04-25T12:48:20;21.25;;;5.10;;
58685;SDS011;44465;53.206;-6.106;2023-04-25T12:50:46;30.55;;;5.07;;
58685;SDS011;44465;53.206;-6.106;2023-04-25T12:53:14;32.70;;;6.00;;
58685;SDS011;44465;53.206;-6.106;2023-04-25T12:55:44;29.98;;;5.40;;
58685;SDS011;44465;53.206;-6.106;2023-04-25T13:00:38;27.52;;;5.10;;
58685;SDS011;44465;53.206;-6.106;2023-04-25T13:03:03;33.53;;;5.85;;
58685;SDS011;44465;53.206;-6.106;2023-04-25T13:05:30;30.30;;;4.78;;
58685;SDS011;44465;53.206;-6.106;2023-04-25T13:07:55;25.05;;;4.88;;
58685;SDS011;44465;53.206;-6.106;2023-04-25T13:10:21;22.27;;;4.38;;
58685;SDS011;44465;53.206;-6.106;2023-04-25T13:12:47;27.85;;;5.40;;
58685;SDS011;44465;53.206;-6.106;2023-04-25T13:15:12;29.13;;;5.78;;
58685;SDS011;44465;53.206;-6.106;2023-04-25T13:17:38;53.90;;;8.07;;
58685;SDS011;44465;53.206;-6.106;2023-04-25T13:20:04;42.85;;;6.43;;
58685;SDS011;44465;53.206;-6.106;2023-04-25T13:22:37;39.13;;;6.30;;
58685;SDS011;44465;53.206;-6.106;2023-04-25T13:25:04;50.65;;;7.47;;
58685;SDS011;44465;53.206;-6.106;2023-04-25T13:27:31;50.33;;;7.28;;
58685;SDS011;44465;53.206;-6.106;2023-04-25T13:29:59;55.53;;;8.52;;
58685;SDS011;44465;53.206;-6.106;2023-04-25T13:32:26;35.60;;;6.63;;
58685;SDS011;44465;53.206;-6.106;2023-04-25T13:34:52;65.43;;;7.50;;
58685;SDS011;44465;53.206;-6.106;2023-04-25T13:37:18;38.92;;;5.93;;
58685;SDS011;44465;53.206;-6.106;2023-04-25T13:39:44;30.95;;;5.45;;
58685;SDS011;44465;53.206;-6.106;2023-04-25T13:42:09;46.97;;;8.20;;
58685;SDS011;44465;53.206;-6.106;2023-04-25T13:44:36;44.15;;;6.30;;
58685;SDS011;44465;53.206;-6.106;2023-04-25T13:47:01;32.50;;;5.65;;
58685;SDS011;44465;53.206;-6.106;2023-04-25T13:49:27;39.65;;;5.90;;
58685;SDS011;44465;53.206;-6.106;2023-04-25T13:51:52;55.17;;;9.02;;
58685;SDS011;44465;53.206;-6.106;2023-04-25T13:54:17;56.85;;;7.72;;
58685;SDS011;44465;53.206;-6.106;2023-04-25T13:56:43;75.95;;;20.92;;
58685;SDS011;44465;53.206;-6.106;2023-04-25T13:59:09;108.10;;;29.77;;
58685;SDS011;44465;53.206;-6.106;2023-04-25T14:01:35;123.57;;;36.88;;
58685;SDS011;44465;53.206;-6.106;2023-04-25T14:04:01;96.05;;;29.05;;
58685;SDS011;44465;53.206;-6.106;2023-04-25T14:06:29;107.20;;;32.53;;
58685;SDS011;44465;53.206;-6.106;2023-04-25T14:08:56;66.50;;;24.90;;
58685;SDS011;44465;53.206;-6.106;2023-04-25T14:11:21;75.32;;;23.35;;
58685;SDS011;44465;53.206;-6.106;2023-04-25T14:13:47;87.68;;;25.77;;
58685;SDS011;44465;53.206;-6.106;2023-04-25T14:16:14;75.00;;;23.63;;
58685;SDS011;44465;53.206;-6.106;2023-04-25T14:18:40;68.85;;;21.70;;
58685;SDS011;44465;53.206;-6.106;2023-04-25T14:21:06;72.78;;;20.48;;
58685;SDS011;44465;53.206;-6.106;2023-04-25T14:23:31;69.82;;;19.85;;
58685;SDS011;44465;53.206;-6.106;2023-04-25T14:25:57;87.25;;;27.52;;
58685;SDS011;44465;53.206;-6.106;2023-04-25T14:28:22;72.10;;;23.05;;
58685;SDS011;44465;53.206;-6.106;2023-04-25T14:30:48;85.95;;;25.33;;
58685;SDS011;44465;53.206;-6.106;2023-04-25T14:33:13;78.70;;;24.63;;
58685;SDS011;44465;53.206;-6.106;2023-04-25T14:35:39;75.93;;;22.42;;
58685;SDS011;44465;53.206;-6.106;2023-04-25T14:38:05;64.10;;;20.05;;
58685;SDS011;44465;53.206;-6.106;2023-04-25T14:40:30;62.20;;;20.05;;
58685;SDS011;44465;53.206;-6.106;2023-04-25T14:42:56;65.35;;;19.77;;
58685;SDS011;44465;53.206;-6.106;2023-04-25T14:45:21;58.67;;;20.70;;
58685;SDS011;44465;53.206;-6.106;2023-04-25T14:47:47;60.47;;;17.83;;
58685;SDS011;44465;53.206;-6.106;2023-04-25T14:50:12;63.28;;;18.60;;
58685;SDS011;44465;53.206;-6.106;2023-04-25T14:52:38;48.97;;;15.65;;
58685;SDS011;44465;53.206;-6.106;2023-04-25T14:55:03;54.00;;;15.90;;
58685;SDS011;44465;53.206;-6.106;2023-04-25T14:57:32;57.85;;;16.05;;
58685;SDS011;44465;53.206;-6.106;2023-04-25T14:59:58;61.78;;;14.80;;
58685;SDS011;44465;53.206;-6.106;2023-04-25T15:02:24;58.28;;;17.45;;
58685;SDS011;44465;53.206;-6.106;2023-04-25T15:04:51;58.33;;;15.48;;